SBNT/NAT METAR and TAF weather

Enter ICAO airport designator
Station Type Date Time Source
SBNT METAR 2020/07/10 22:00 UTC NOAA

SBNT 102200Z 14006KT 9999 FEW023 25/22 Q1014


Station Type Date Time Source
SBNT Decoded METAR 2020/07/10 22:00 UTC NOAA

Natal Aeroporto, Brazil (SBNT) 05-55S 035-15W 49M
Jul 10, 2020 - 06:00 PM EDT / 2020.07.10 2200 UTC
Wind: from the SE (140 degrees) at 7 MPH (6 KT):0
Visibility: greater than 7 mile(s):0
Sky conditions: mostly clear
Temperature: 77 F (25 C)
Dew Point: 71 F (22 C)
Relative Humidity: 83%
Pressure (altimeter): 29.94 in. Hg (1014 hPa)
ob: SBNT 102200Z 14006KT 9999 FEW023 25/22 Q1014
cycle: 22

Station Type Date Time Source
SBNT TAF 2020/07/10 18:06 UTC NOAA

TAF SBNT 101500Z 1018/1106 15009KT 9999 SCT023 TX28/1018Z TN23/1104Z
RMK PEG

Example: see airport list